Poplarville, MS (39470)

5:23 PM CDT on August 30, 2016 (GMT -0500)
Pearl River Hay Farm | | Change Station

Elev 256 ft 30.92 °N, 89.66 °W | Updated 11 seconds ago

Clear
Clear
89.6 °F
Feels Like 95 °F
N
4.5
Wind Variable Wind from ENE
Gusts 4.9 mph

Today
High -- | Low -- °F
--% Chance of Precip.
Yesterday
High -- | Low -- °F
Precip. -- in
Pressure 29.91 in
Visibility 10.0 miles
Clouds Clear
Heat Index 95 °F
Dew Point 70 °F
Humidity 52%
Rainfall 0.00 in
Snow Depth Not available.
6:33 AM 7:23 PM
Waning Crescent, 2% visible
METAR KBXA 302215Z AUTO 07004KT 10SM CLR 34/21 A2991 RMK AO2 T03410212 PWINO
Pressure 29.91 in
Visibility 10.0 miles
Clouds Clear
Heat Index 95 °F
Dew Point 70 °F
Humidity 52%
Rainfall 0.00 in
Snow Depth Not available.
6:33 AM 7:23 PM
Waning Crescent, 2% visible
METAR KBXA 302215Z AUTO 07004KT 10SM CLR 34/21 A2991 RMK AO2 T03410212 PWINO

10-Day Weather Forecast

Almanac

Astronomy

Aug. 30, 2016 Rise Set
Actual Time
Civil Twilight
Nautical Twilight
Astronomical Twilight
Moon
Length of Visible Light
Length of Day
Tomorrow will be .
, % of the Moon is Illuminated

Today's Extremes

State Highs State Lows

Community

WunderPhotos

Upload Photos

1,935,911 photos uploaded!

WunderBlog® & News

Nearby

Air Quality

  Air Quality AQ Index Pollutant
Not available.

Snow Depth

Station Depth Elevation

Earthquake Activity

City Distance Mag. Time & Date
Minimum magnitude displayed is 2.5.

Coastal Water Temperatures

Place Temperature

Stations

Nearby Weather Stations

Station Location Temp. Windchill Dew Point Humidity Wind Precip. Elev Updated Type
                   

Watches & Warnings

There are currently no watches in effect.